KBJJ

Wayne County Airport

Wooster, Ohio, USA
METAR KBJJ 100556Z AUTO 33003KT 4SM BR CLR M08/M08 A3018 RMK AO2 SLP237 T10781083 11039 21089 58010
Observed Flight Rules
Dec-10 @ 05:56 UTC (33 minutes ago) Marginal Visual Flight Rules
Wind Visibility Clouds Conditions
330° at 3 knots 4 miles
  • Clear skies
  • Mist
Temperatures Readings
Current -8°C / 18°F
Dewpoint -8°C / 18°F
Humidity 100%
Altimeter 30.18" Hg
Pressure 1023.7 hPa
Elevation 343
METAR KBJJ 100556Z AUTO 33003KT 4SM BR CLR M08/M08 A3018 RMK AO2 SLP237 T10781083 11039 21089 58010
Observed Flight Rules
Dec-10 @ 05:56 UTC
(33 minutes ago)
MVFR
Wind Visibility
330° at 3 knots 4 miles
Clouds
  • Clear skies
Conditions
  • Mist
Temperature Dewpoint
-8°C / 18°F -8°C / 18°F
Humidity Altimeter Pressure
100% 30.18" Hg 1023.7 hPa